• Join FlightAware (Why Join?)
  • Login
  • US Flag 
08:15AM EST


 

Airport Tracker/Info


-or-


 

Live Flight TrackerFlight Track Log ✈ EJA941 ✈ 12-Aug-2013 ✈ KAPF - KHPN

Flight Track Log - Related Links

Times and Time Zones

All times are in EDT time to prevent confusion due to time zone crossing. See the EJA941 flight status page for this flight to view local times or setup timezone preferences in your user account.

Time Position Orientation Groundspeed Altitude Reporting Facility
EDT Latitude Longitude Course Direction KTS MPH feet Rate Location/Type
07:57AM 26.2128 -81.7169 North 235 270 3,800  Level Miami Center
07:58AM 26.2858 -81.7178 359° North 255 293 7,200 3,350 Climbing Miami Center
07:59AM 26.3650 -81.7208 358° North 270 311 10,500 2,800 Climbing Miami Center
08:00AM 26.4525 -81.7244 358° North 317 365 12,800 1,550 Climbing Miami Center
08:01AM 26.5567 -81.7333 356° North 341 392 13,600 1,150 Climbing Miami Center
08:02AM 26.9759 -81.7374 North  Level FlightAware Approximate
08:02AM 26.6569 -81.7331 360° North 363 418 15,100  Level Miami Center
08:03AM 26.7761 -81.7239 North 373 429 16,500 1,250 Climbing Miami Center
08:04AM 26.8850 -81.7169 North 389 448 17,600 950 Climbing Miami Center
08:05AM 26.9811 -81.7139 North 389 448 18,400 1,000 Climbing Miami Center
08:06AM 27.0919 -81.7044 North 389 448 19,600 1,200 Climbing Miami Center
08:07AM 27.2175 -81.6981 North 398 458 20,800 1,050 Climbing Miami Center
08:08AM 27.3344 -81.6914 North 411 473 21,700 864 Climbing Miami Center
08:09AM 27.4517 -81.6844 North 424 488 22,700 1,000 Climbing Miami Center
08:10AM 27.5833 -81.6761 North 430 495 23,900 1,100 Climbing Miami Center
08:11AM 27.7194 -81.6678 North 430 495 24,900 1,150 Climbing Miami Center
08:12AM 27.8281 -81.6606 North 437 503 26,200 1,500 Climbing Miami Center
08:13AM 27.9453 -81.6539 North 432 497 27,900 1,400 Climbing Miami Center
08:14AM 28.0644 -81.6469 North 422 486 29,000 1,200 Climbing Miami Center
08:15AM 28.1878 -81.6406 North 427 491 30,300 1,150 Climbing Miami Center
08:16AM 28.3067 -81.6339 North 427 491 31,300 1,122 Climbing Miami Center
08:17AM 28.4881 -81.6242 North 447 514 32,900 950 Climbing Jacksonville Center
08:18AM 28.6214 -81.6156 North 459 528 33,500 950 Climbing Jacksonville Center
08:19AM 28.7508 -81.6067 North 459 528 34,800 1,200 Climbing Jacksonville Center
08:20AM 28.8842 -81.6003 North 469 540 35,900 1,100 Climbing Jacksonville Center
08:21AM 29.0178 -81.5914 North 469 540 37,000 550 Climbing Jacksonville Center
08:22AM 29.1556 -81.5825 North 480 552 37,000  Level Jacksonville Center
08:23AM 29.2828 -81.5758 North 485 558 37,000  Level Jacksonville Center
08:24AM 29.4286 -81.5669 North 506 582 37,000  Level Jacksonville Center
08:25AM 29.5747 -81.5578 North 517 595 37,000  Level Jacksonville Center
08:26AM 29.7208 -81.5486 North 522 601 37,000  Level Jacksonville Center
08:27AM 29.8669 -81.5394 North 522 601 37,000  Level Jacksonville Center
08:28AM 30.0150 -81.5300 North 522 601 37,000  Level Jacksonville Center
08:29AM 30.1589 -81.5208 North 522 601 37,000  Level Jacksonville Center
08:30AM 30.3069 -81.5114 North 517 595 37,000 600 Level Jacksonville Center
08:31AM 30.4486 -81.4733 13° North 517 595 38,200 1,000 Climbing Jacksonville Center
08:32AM 30.5817 -81.4278 16° North 511 588 39,000 400 Climbing Jacksonville Center
08:33AM 30.7083 -81.3533 27° Northeast 500 575 39,000  Level Jacksonville Center
08:34AM 30.8303 -81.2644 32° Northeast 500 575 39,000 100 Level Jacksonville Center
08:35AM 30.9522 -81.1775 31° Northeast 506 582 39,200 650 Climbing Jacksonville Center
08:36AM 31.0722 -81.0903 32° Northeast 506 582 40,300 900 Climbing Jacksonville Center
08:37AM 31.1900 -81.0056 32° Northeast 506 582 41,000 350 Climbing Jacksonville Center
08:38AM 31.3078 -80.9206 32° Northeast 494 568 41,000  Level Jacksonville Center
08:39AM 31.4356 -80.8228 33° Northeast 494 568 41,000  Level Jacksonville Center
08:40AM 31.5450 -80.7475 30° Northeast 496 571 41,000  Level Jacksonville Center
08:41AM 31.6667 -80.6567 32° Northeast 496 571 41,000  Level Jacksonville Center
08:42AM 31.7964 -80.5606 32° Northeast 503 579 41,000  Level Jacksonville Center
08:43AM 31.9036 -80.4822 32° Northeast 503 579 41,000  Level Jacksonville Center
08:44AM 32.0208 -80.3933 33° Northeast 508 585 41,000  Level Jacksonville Center
08:45AM 32.1400 -80.3042 32° Northeast 503 579 41,000  Level Jacksonville Center
08:46AM 32.2594 -80.2147 32° Northeast 503 579 41,000  Level Jacksonville Center
08:47AM 32.3806 -80.1275 31° Northeast 503 579 41,000  Level Jacksonville Center
08:48AM 32.4997 -80.0378 32° Northeast 503 579 41,000  Level Jacksonville Center
08:49AM 32.6186 -79.9478 33° Northeast 508 585 41,000  Level Jacksonville Center
08:50AM 32.7375 -79.8550 33° Northeast 508 585 41,000  Level Jacksonville Center
08:51AM 32.8586 -79.7644 32° Northeast 508 585 41,000  Level Jacksonville Center
08:52AM 32.9792 -79.6711 33° Northeast 508 585 41,000  Level Jacksonville Center
08:53AM 33.1003 -79.5825 31° Northeast 508 585 41,000  Level Jacksonville Center
08:54AM 33.2228 -79.4883 33° Northeast 508 585 41,000  Level Jacksonville Center
08:55AM 33.3436 -79.3967 32° Northeast 508 585 41,000  Level Jacksonville Center
08:56AM 33.4642 -79.3050 32° Northeast 508 585 41,000  Level Jacksonville Center
08:57AM 33.5867 -79.2103 33° Northeast 508 585 41,000  Level Jacksonville Center
08:58AM 33.7172 -79.1122 32° Northeast 508 585 41,000  Level Jacksonville Center
09:01AM 34.0161 -78.8814 33° Northeast 525 604 41,000  Level Washington Center
09:02AM 34.1375 -78.7833 34° Northeast 525 604 41,000  Level Washington Center
09:03AM 34.2633 -78.6878 32° Northeast 525 604 41,000  Level Washington Center
09:04AM 34.3808 -78.5789 37° Northeast 525 604 41,000  Level Washington Center
09:05AM 34.4942 -78.4647 40° Northeast 525 604 41,000  Level Washington Center
09:06AM 34.6094 -78.3500 39° Northeast 525 604 41,000  Level Washington Center
09:07AM 34.7228 -78.2300 41° Northeast 530 610 41,000  Level Washington Center
09:08AM 34.8339 -78.1122 41° Northeast 530 610 41,000  Level Washington Center
09:09AM 34.9469 -77.9917 41° Northeast 530 610 41,000  Level Washington Center
09:10AM 35.0619 -77.8733 40° Northeast 535 616 41,000  Level Washington Center
09:11AM 35.1681 -77.7669 39° Northeast 546 628 41,000  Level Washington Center
09:12AM 35.2831 -77.6481 40° Northeast 540 621 41,000  Level Washington Center
09:13AM 35.3997 -77.5311 39° Northeast 540 621 41,000  Level Washington Center
09:14AM 35.5267 -77.4219 35° Northeast 540 621 41,000  Level Washington Center
09:15AM 35.6472 -77.3147 36° Northeast 547 629 41,000  Level Washington Center
09:16AM 35.7739 -77.2075 34° Northeast 547 629 41,000  Level Washington Center
09:17AM 35.9025 -77.0869 37° Northeast 542 624 41,000  Level Washington Center
09:18AM 36.0292 -76.9764 35° Northeast 548 631 41,000  Level Washington Center
09:19AM 36.1533 -76.8681 35° Northeast 548 631 41,000  Level Washington Center
09:20AM 36.2778 -76.7567 36° Northeast 548 631 41,000  Level Washington Center
09:21AM 36.4017 -76.6447 36° Northeast 548 631 41,000  Level Washington Center
09:22AM 36.5258 -76.5353 35° Northeast 548 631 41,000  Level Washington Center
09:23AM 36.6539 -76.4206 36° Northeast 553 636 41,000  Level Washington Center
09:24AM 36.7778 -76.3025 37° Northeast 553 636 41,000  Level Washington Center
09:25AM 36.9056 -76.1919 35° Northeast 553 636 41,000  Level Washington Center
09:26AM 37.0394 -76.1306 20° North 553 636 41,000  Level Washington Center
09:27AM 37.1775 -76.0558 23° Northeast 546 628 41,000  Level Washington Center
09:28AM 37.3175 -75.9783 24° Northeast 546 628 41,000  Level Washington Center
09:29AM 37.4575 -75.9031 23° Northeast 546 628 41,000  Level Washington Center
09:30AM 37.5931 -75.8197 26° Northeast 535 616 41,000  Level Washington Center
09:31AM 37.7289 -75.7206 30° Northeast 542 624 41,000  Level Washington Center
09:32AM 37.8625 -75.6181 31° Northeast 548 631 41,000  Level Washington Center
09:33AM 37.9958 -75.5128 32° Northeast 553 636 41,000  Level Washington Center
09:34AM 38.1333 -75.4203 28° Northeast 559 643 41,000  Level Washington Center
09:35AM 38.2728 -75.3300 27° Northeast 554 638 41,000  Level Washington Center
09:36AM 38.4083 -75.2392 28° Northeast 554 638 41,000  Level Washington Center
09:37AM 38.5475 -75.1511 26° Northeast 554 638 41,000  Level Washington Center
09:38AM 38.6889 -75.0625 26° Northeast 559 643 41,000 -98 Level Washington Center
09:39AM 38.8325 -74.9786 24° Northeast 559 643 40,800 -908 Descending Washington Center
09:40AM 38.9736 -74.8786 29° Northeast 536 617 39,200 -1,475 Descending Washington Center
09:41AM 39.0836 -74.8056 27° Northeast 536 617 37,900 -1,650 Descending Washington Center
09:42AM 39.2347 -74.6592 37° Northeast 555 639 35,900 -1,884 Descending Washington Center
09:43AM 39.3422 -74.5450 39° Northeast 560 644 34,100 -2,348 Descending Washington Center
09:44AM 39.5103 -74.3711 39° Northeast 556 640 30,500 -3,957 Descending New York Center
09:45AM 39.6181 -74.2581 39° Northeast 551 634 25,000 -3,782 Descending New York Center
09:46AM 39.7278 -74.1422 39° Northeast 535 616 23,000 -1,000 Descending New York Center
09:47AM 39.8439 -74.0181 39° Northeast 501 577 23,000  Level New York Center
09:48AM 39.9511 -73.9092 38° Northeast 490 564 23,000  Level New York Center
09:49AM 40.0561 -73.7947 40° Northeast 490 564 23,000 -1,229 Level New York Center
09:51AM 40.2944 -73.5339 40° Northeast 487 560 18,800 -1,756 Descending Boston Center
09:52AM 40.3975 -73.4456 33° Northeast 468 539 17,000 -900 Descending Boston Center
09:53AM 40.5122 -73.4064 15° North 427 491 17,000  Level Boston Center
09:54AM 40.6272 -73.3644 15° North 427 491 17,000 -555 Level Boston Center
09:55AM 40.7339 -73.3275 15° North 415 478 15,900 -920 Descending Boston Center
09:57AM 40.8500 -73.2000 40° Northeast 348 400 14,700 -1,450 Descending New York TRACON
09:58AM 40.9000 -73.1000 56° Northeast 373 429 12,300 -1,900 Descending New York TRACON
09:59AM 40.9500 -73.0000 56° Northeast 316 364 10,900 -2,100 Descending New York TRACON
10:00AM 41.0167 -73.0000 360° North 307 353 8,100 -1,750 Descending New York TRACON
10:01AM 41.0500 -73.0833 298° West 253 291 7,400 -950 Descending New York TRACON
10:02AM 41.0667 -73.1667 285° West 262 302 6,200 -850 Descending New York TRACON
10:04AM 41.0671 -73.4513 276° West  Level Estimated
10:05AM 41.1333 -73.4167 276° West 215 247 4,000  Level New York TRACON
10:06AM 41.1167 -73.5000 255° West 229 264 3,100 -500 Descending New York TRACON
10:07AM 41.0500 -73.5000 180° South 223 257 3,000 -300 Descending New York TRACON
10:08AM 41.0000 -73.5167 194° South 219 252 2,500 -500 Descending New York TRACON
10:09AM 41.0000 -73.6000 270° West 219 252 2,000 -500 Descending New York TRACON
10:11AM 41.0667 -73.7000 236° Southwest  Level FlightAware Approximate
10:18AM 41.0669 -73.7076 236° Southwest  Level Estimated